Time;durP1;ratioP1;P1;durP2;ratioP2;P2;SDS_P1;SDS_P2;PMS_P1;PMS_P2;Temp;Humidity;BMP_temperature;BMP_pressure;BME280_temperature;BME280_humidity;BME280_pressure;Samples;Min_cycle;Max_cycle;Signal;HPM_P1;HPM_P2
2022/07/08 00:01:40;;;;;;;17.83;3.28;;;;;;;15.85;60.37;100954.88;4871885;29;20584;-69
2022/07/08 00:04:07;;;;;;;13.52;4.70;;;;;;;15.77;60.80;100955.28;4872032;29;20053;-68
2022/07/08 00:06:34;;;;;;;14.88;4.88;;;;;;;15.83;60.82;100954.13;4872171;29;20056;-68
2022/07/08 00:09:00;;;;;;;10.50;2.97;;;;;;;15.82;60.67;100955.91;4872165;29;20060;-69
2022/07/08 00:11:27;;;;;;;8.85;3.35;;;;;;;15.83;60.79;100957.63;4871686;29;20049;-70
2022/07/08 00:13:53;;;;;;;8.70;2.70;;;;;;;15.81;60.81;100958.66;4871568;29;20063;-69
2022/07/08 00:16:20;;;;;;;6.82;2.88;;;;;;;15.83;60.72;100954.13;4871000;29;20080;-69
2022/07/08 00:18:48;;;;;;;8.18;2.97;;;;;;;15.79;60.66;100952.56;4871707;29;20049;-69
2022/07/08 00:21:14;;;;;;;10.32;3.65;;;;;;;15.77;61.01;100960.59;4871471;29;20143;-69
2022/07/08 00:23:41;;;;;;;17.42;3.47;;;;;;;15.79;60.99;100957.88;4889937;29;20055;-69
2022/07/08 00:26:07;;;;;;;11.82;3.00;;;;;;;15.78;61.20;100958.81;4889230;29;20060;-68
2022/07/08 00:28:34;;;;;;;9.55;3.17;;;;;;;15.80;61.25;100959.59;4890017;29;20056;-69
2022/07/08 00:31:00;;;;;;;10.60;3.15;;;;;;;15.76;61.56;100966.88;4884570;29;20575;-69
2022/07/08 00:33:27;;;;;;;16.73;4.30;;;;;;;15.75;61.55;100957.19;4879258;29;20057;-69
2022/07/08 00:35:55;;;;;;;14.48;3.72;;;;;;;15.76;61.55;100964.22;4870486;29;20505;-69
2022/07/08 00:38:21;;;;;;;10.82;3.28;;;;;;;15.71;61.23;100966.25;4870910;29;20053;-69
2022/07/08 00:40:48;;;;;;;12.50;3.70;;;;;;;15.68;61.55;100964.59;4871370;29;20063;-69
2022/07/08 00:43:28;;;;;;;10.73;3.05;;;;;;;15.71;61.66;100965.41;4870964;29;20053;-68
2022/07/08 00:45:54;;;;;;;16.55;5.25;;;;;;;15.66;61.99;100958.47;4870531;29;20057;-68
2022/07/08 00:48:21;;;;;;;8.20;3.22;;;;;;;15.65;61.79;100961.19;4871102;29;20053;-69
2022/07/08 00:50:47;;;;;;;8.57;2.80;;;;;;;15.71;62.16;100968.91;4871067;29;20049;-69
2022/07/08 00:53:16;;;;;;;10.55;3.58;;;;;;;15.73;61.41;100974.16;4870913;29;20516;-69
2022/07/08 00:55:42;;;;;;;9.57;3.17;;;;;;;15.70;61.49;100967.16;4868845;29;20049;-68
2022/07/08 00:58:09;;;;;;;7.68;3.60;;;;;;;15.71;61.56;100960.09;4870995;29;20052;-69
2022/07/08 01:00:36;;;;;;;15.45;3.83;;;;;;;15.67;61.63;100962.84;4864169;29;20063;-69
2022/07/08 01:03:03;;;;;;;11.27;4.50;;;;;;;15.63;61.79;100963.09;4871128;29;20056;-69
2022/07/08 01:05:29;;;;;;;7.47;3.38;;;;;;;15.56;61.75;100959.91;4869924;29;20049;-69
2022/07/08 01:07:57;;;;;;;7.57;2.92;;;;;;;15.52;61.69;100958.31;4870526;29;20049;-69
2022/07/08 01:10:25;;;;;;;7.63;3.22;;;;;;;15.52;61.92;100960.97;4870730;29;20053;-69
2022/07/08 01:12:51;;;;;;;9.02;3.70;;;;;;;15.55;62.02;100968.78;4870702;29;20055;-69
2022/07/08 01:15:20;;;;;;;12.15;3.50;;;;;;;15.58;61.78;100967.78;4870123;29;20151;-68
2022/07/08 01:17:48;;;;;;;5.63;2.55;;;;;;;15.52;61.82;100965.44;4871116;29;20053;-69
2022/07/08 01:20:15;;;;;;;12.25;3.63;;;;;;;15.50;62.00;100952.22;4870941;29;20109;-68
2022/07/08 01:22:43;;;;;;;6.13;2.53;;;;;;;15.53;61.68;100964.50;4870467;29;20059;-69
2022/07/08 01:25:11;;;;;;;9.90;4.00;;;;;;;15.52;61.79;100955.66;4870473;29;20060;-68
2022/07/08 01:27:37;;;;;;;7.43;3.05;;;;;;;15.49;61.59;100962.94;4870599;29;20052;-68
2022/07/08 01:30:05;;;;;;;8.02;3.05;;;;;;;15.45;61.24;100968.41;4877991;29;20078;-68
2022/07/08 01:32:33;;;;;;;13.55;4.35;;;;;;;15.40;61.54;100964.25;4870664;29;20049;-68
2022/07/08 01:35:00;;;;;;;13.65;3.33;;;;;;;15.39;61.64;100973.19;4870055;29;20060;-68
2022/07/08 01:37:26;;;;;;;6.95;4.22;;;;;;;15.41;61.57;100972.16;4870566;29;20053;-68
2022/07/08 01:39:54;;;;;;;8.63;2.90;;;;;;;15.43;61.42;100967.63;4870645;29;20147;-69
2022/07/08 01:42:21;;;;;;;11.20;3.85;;;;;;;15.42;61.52;100965.91;4870144;29;20057;-69
2022/07/08 01:44:48;;;;;;;17.38;3.60;;;;;;;15.40;61.46;100959.78;4869939;29;20049;-69
2022/07/08 01:47:14;;;;;;;8.52;3.25;;;;;;;15.38;61.59;100960.81;4870363;29;20056;-69
2022/07/08 01:49:41;;;;;;;13.68;3.97;;;;;;;15.37;61.69;100965.28;4870601;29;20057;-69
2022/07/08 01:52:08;;;;;;;9.10;3.22;;;;;;;15.38;61.52;100963.47;4870677;29;20063;-69
2022/07/08 01:54:35;;;;;;;9.40;3.20;;;;;;;15.34;61.43;100973.41;4870099;29;20063;-69
2022/07/08 01:57:15;;;;;;;11.40;4.15;;;;;;;15.32;61.72;100962.00;4870250;29;20055;-69
2022/07/08 01:59:42;;;;;;;9.82;3.33;;;;;;;15.29;61.95;100958.66;4870131;29;20070;-69
2022/07/08 02:02:10;;;;;;;6.30;3.00;;;;;;;15.27;62.03;100957.84;4870872;29;20060;-69
2022/07/08 02:04:36;;;;;;;13.00;3.45;;;;;;;15.25;62.04;100963.22;4869648;29;20057;-68
2022/07/08 02:07:04;;;;;;;15.85;3.40;;;;;;;15.21;62.36;100969.63;4873284;29;20761;-68
2022/07/08 02:09:31;;;;;;;12.32;3.53;;;;;;;15.18;62.43;100972.44;4874390;29;20081;-69
2022/07/08 02:14:43;;;;;;;9.57;2.80;;;;;;;15.09;62.84;100964.91;4873392;29;20104;-69
2022/07/08 02:17:10;;;;;;;8.75;3.15;;;;;;;15.08;62.90;100965.88;4873227;29;20067;-69
2022/07/08 02:19:36;;;;;;;10.13;3.13;;;;;;;15.11;62.94;100965.72;4874353;29;20071;-68
2022/07/08 02:22:03;;;;;;;12.90;3.50;;;;;;;15.10;63.30;100966.66;4873613;29;20505;-68
2022/07/08 02:24:30;;;;;;;10.60;3.08;;;;;;;15.09;62.97;100970.22;4872861;29;20061;-68
2022/07/08 02:26:57;;;;;;;10.73;3.00;;;;;;;15.11;63.00;100971.91;4881295;29;20424;-69
2022/07/08 02:29:23;;;;;;;9.98;3.50;;;;;;;15.13;62.94;100967.34;4873386;29;20836;-69
2022/07/08 02:31:51;;;;;;;7.63;2.83;;;;;;;15.12;63.24;100970.94;4873539;29;20049;-69
2022/07/08 02:34:18;;;;;;;7.95;3.83;;;;;;;15.11;63.37;100963.06;4872986;29;20057;-69
2022/07/08 02:36:44;;;;;;;8.98;3.28;;;;;;;15.12;63.39;100956.81;4873805;29;20055;-68
2022/07/08 02:39:12;;;;;;;16.88;4.10;;;;;;;15.14;63.21;100965.56;4873621;29;20068;-69
2022/07/08 02:41:39;;;;;;;13.63;4.40;;;;;;;15.16;63.28;100964.56;4874000;29;20056;-70
2022/07/08 02:44:06;;;;;;;11.90;4.55;;;;;;;15.15;63.03;100957.50;4873098;29;20057;-69
2022/07/08 02:46:33;;;;;;;8.82;2.85;;;;;;;15.10;63.68;100956.88;4873317;29;20717;-69
2022/07/08 02:49:01;;;;;;;6.97;3.38;;;;;;;15.07;63.63;100962.34;4873198;29;20045;-69
2022/07/08 02:51:28;;;;;;;9.93;3.83;;;;;;;15.10;63.67;100964.00;4873444;29;20068;-69
2022/07/08 02:53:55;;;;;;;5.82;2.83;;;;;;;15.08;63.90;100966.72;4872929;29;20045;-68
2022/07/08 02:56:21;;;;;;;8.45;2.90;;;;;;;15.08;63.69;100965.88;4872966;29;20051;-69
2022/07/08 02:58:48;;;;;;;11.05;3.47;;;;;;;15.06;64.05;100965.94;4873344;29;20051;-69
2022/07/08 03:01:15;;;;;;;8.07;3.55;;;;;;;15.09;63.83;100968.47;4873189;29;20072;-69
2022/07/08 03:03:41;;;;;;;5.20;2.33;;;;;;;15.12;63.78;100968.28;4873170;29;20591;-69
2022/07/08 03:06:09;;;;;;;11.05;3.67;;;;;;;15.07;63.67;100970.31;4873751;29;20049;-69
2022/07/08 03:08:36;;;;;;;11.45;3.47;;;;;;;15.02;64.13;100964.38;4873351;29;20055;-68
2022/07/08 03:11:02;;;;;;;10.82;3.60;;;;;;;15.01;64.17;100973.25;4873095;29;20052;-68
2022/07/08 03:13:30;;;;;;;19.08;4.25;;;;;;;14.92;64.37;100969.28;4873014;29;20147;-68
2022/07/08 03:15:57;;;;;;;15.52;3.97;;;;;;;14.80;64.70;100962.75;4872228;29;20057;-68
2022/07/08 03:18:23;;;;;;;10.63;3.28;;;;;;;14.72;65.29;100961.41;4872134;29;20048;-69
2022/07/08 03:20:50;;;;;;;8.63;3.17;;;;;;;14.64;65.47;100959.09;4874188;29;20380;-68
2022/07/08 03:23:18;;;;;;;10.13;2.85;;;;;;;14.59;65.46;100959.34;4878084;29;20057;-69
2022/07/08 03:25:44;;;;;;;8.18;4.30;;;;;;;14.60;65.75;100960.19;4872183;29;20505;-69
2022/07/08 03:28:11;;;;;;;10.02;4.03;;;;;;;14.51;65.68;100971.19;4872538;29;20064;-69
2022/07/08 03:30:38;;;;;;;7.93;2.95;;;;;;;14.48;65.90;100968.69;4873076;29;20057;-69
2022/07/08 03:33:04;;;;;;;13.98;4.03;;;;;;;14.49;66.46;100970.41;4872603;29;20056;-68
2022/07/08 03:35:31;;;;;;;16.58;4.78;;;;;;;14.43;66.49;100970.69;4871814;29;20053;-69
2022/07/08 03:37:57;;;;;;;10.18;3.47;;;;;;;14.39;66.48;100969.97;4872394;29;20041;-69
2022/07/08 03:43:10;;;;;;;15.40;4.13;;;;;;;14.32;66.84;100969.41;4872522;29;20060;-68
2022/07/08 03:45:37;;;;;;;17.67;4.85;;;;;;;14.23;67.08;100969.81;4871737;29;20409;-69
2022/07/08 03:48:04;;;;;;;12.40;3.47;;;;;;;14.25;67.13;100969.72;4872360;29;20053;-67
2022/07/08 03:50:31;;;;;;;9.38;3.05;;;;;;;14.26;66.77;100971.47;4872406;29;20511;-67
2022/07/08 03:52:57;;;;;;;9.35;3.55;;;;;;;14.21;67.51;100976.97;4872024;29;20056;-68
2022/07/08 03:55:26;;;;;;;14.43;3.63;;;;;;;14.18;67.57;100983.28;4871813;29;20061;-68
2022/07/08 03:57:53;;;;;;;8.73;3.58;;;;;;;14.16;67.46;100976.34;4871864;29;20059;-68
2022/07/08 04:00:20;;;;;;;16.27;3.70;;;;;;;14.20;67.34;100982.34;4872057;29;20650;-68
2022/07/08 04:02:47;;;;;;;14.25;4.30;;;;;;;14.18;67.61;100987.75;4872325;29;20604;-68
2022/07/08 04:05:14;;;;;;;11.38;3.40;;;;;;;14.15;67.57;100991.38;4871485;29;20362;-69
2022/07/08 04:07:41;;;;;;;13.48;4.07;;;;;;;14.09;67.38;100985.50;4872476;29;20421;-68
2022/07/08 04:10:09;;;;;;;13.75;4.43;;;;;;;14.05;67.66;101000.66;4872047;29;20052;-69
2022/07/08 04:12:37;;;;;;;8.32;3.15;;;;;;;13.99;68.00;100994.78;4871717;29;20049;-68
2022/07/08 04:15:04;;;;;;;7.45;3.33;;;;;;;13.98;68.51;101004.53;4871170;29;20056;-69
2022/07/08 04:17:31;;;;;;;9.25;3.35;;;;;;;13.96;68.34;100999.28;4878550;29;22497;-68
2022/07/08 04:19:58;;;;;;;11.38;4.25;;;;;;;13.95;68.19;101009.94;4872288;29;20060;-69
2022/07/08 04:22:24;;;;;;;11.18;3.10;;;;;;;13.98;68.78;101003.66;4871456;29;20052;-69
2022/07/08 04:24:51;;;;;;;10.38;3.92;;;;;;;13.96;68.84;101009.03;4870971;29;20093;-68
2022/07/08 04:27:17;;;;;;;14.07;4.00;;;;;;;13.95;68.72;101016.13;4871374;29;20056;-68
2022/07/08 04:29:45;;;;;;;13.52;4.28;;;;;;;13.94;68.56;101014.41;4870198;29;20056;-67
2022/07/08 04:32:12;;;;;;;11.25;4.45;;;;;;;13.96;68.49;101015.19;4871331;29;20059;-68
2022/07/08 04:34:38;;;;;;;11.27;3.70;;;;;;;13.99;68.42;101023.94;4871416;29;20312;-68
2022/07/08 04:37:05;;;;;;;13.38;3.13;;;;;;;13.95;68.60;101015.25;4871629;29;20049;-68
2022/07/08 04:39:31;;;;;;;18.17;5.55;;;;;;;13.95;68.87;101013.50;4871478;29;20064;-69
2022/07/08 04:41:58;;;;;;;10.48;4.07;;;;;;;13.98;67.87;101017.78;4871607;29;20049;-69
2022/07/08 04:44:24;;;;;;;7.53;4.65;;;;;;;14.01;67.83;101014.16;4870397;29;20049;-69
2022/07/08 04:46:52;;;;;;;7.22;3.45;;;;;;;14.07;68.05;101020.03;4871207;29;20056;-68
2022/07/08 04:49:19;;;;;;;9.93;3.35;;;;;;;14.11;67.91;101026.06;4871082;29;20063;-68
2022/07/08 04:51:46;;;;;;;7.88;4.13;;;;;;;14.15;67.41;101027.63;4871632;29;20509;-69
2022/07/08 04:54:12;;;;;;;13.35;5.65;;;;;;;14.20;67.32;101028.31;4870014;29;20057;-68
2022/07/08 04:56:39;;;;;;;12.73;4.00;;;;;;;14.24;67.29;101032.53;4871758;29;20539;-69
2022/07/08 04:59:06;;;;;;;8.50;3.63;;;;;;;14.30;66.88;101029.63;4870441;29;20473;-69
2022/07/08 05:01:32;;;;;;;8.35;3.75;;;;;;;14.34;67.00;101036.50;4870989;29;20580;-70
2022/07/08 05:04:00;;;;;;;11.20;3.55;;;;;;;14.38;66.82;101039.91;4870688;29;20056;-69
2022/07/08 05:06:27;;;;;;;6.28;2.80;;;;;;;14.44;66.40;101030.78;4871038;29;20061;-68
2022/07/08 05:08:54;;;;;;;15.88;3.67;;;;;;;14.48;66.44;101024.41;4871111;29;20135;-68
2022/07/08 05:11:20;;;;;;;8.52;3.47;;;;;;;14.51;66.83;101024.28;4871525;29;20064;-69
2022/07/08 05:13:47;;;;;;;13.20;3.95;;;;;;;14.55;66.41;101023.25;4879343;29;20059;-68
2022/07/08 05:16:13;;;;;;;7.57;3.65;;;;;;;14.63;66.17;101023.75;4873027;29;20084;-68
2022/07/08 05:18:41;;;;;;;14.80;4.28;;;;;;;14.65;65.84;101027.19;4871160;29;20057;-69
2022/07/08 05:21:08;;;;;;;10.25;3.63;;;;;;;14.69;65.43;101014.63;4871419;29;20052;-69
2022/07/08 05:23:35;;;;;;;13.55;5.10;;;;;;;14.73;65.42;101003.78;4870779;29;20053;-69
2022/07/08 05:26:02;;;;;;;10.80;3.90;;;;;;;14.82;64.92;101010.47;4870397;29;20056;-69
2022/07/08 05:28:28;;;;;;;11.50;3.53;;;;;;;14.92;64.56;101005.59;4872480;29;20045;-69
2022/07/08 05:30:55;;;;;;;13.23;4.28;;;;;;;14.77;64.52;101017.81;4871760;29;20049;-69
2022/07/08 05:33:21;;;;;;;10.77;4.00;;;;;;;14.71;64.55;101020.72;4871657;29;20059;-69
2022/07/08 05:35:48;;;;;;;14.70;4.57;;;;;;;14.76;64.98;101021.38;4871133;29;20528;-69
2022/07/08 05:38:16;;;;;;;10.57;3.70;;;;;;;14.91;64.55;101033.91;4871740;29;20057;-69
2022/07/08 05:40:43;;;;;;;12.23;4.82;;;;;;;15.17;63.93;101027.38;4872957;29;20052;-68
2022/07/08 05:43:10;;;;;;;12.63;4.18;;;;;;;15.45;63.16;101033.97;4875880;29;20053;-69
2022/07/08 05:45:36;;;;;;;16.50;3.92;;;;;;;15.75;61.84;101034.28;4868421;29;20057;-69
2022/07/08 05:48:03;;;;;;;9.82;3.65;;;;;;;15.97;61.88;101034.03;4875976;29;20859;-68
2022/07/08 05:50:30;;;;;;;7.60;2.88;;;;;;;16.07;60.21;101037.06;4876063;29;20052;-68
2022/07/08 05:52:56;;;;;;;5.32;2.97;;;;;;;16.10;60.54;101043.09;4875899;29;20063;-69
2022/07/08 05:55:24;;;;;;;9.40;3.83;;;;;;;16.10;60.04;101040.44;4876244;29;20061;-69
2022/07/08 05:57:51;;;;;;;9.20;3.10;;;;;;;16.22;59.48;101052.25;4875953;29;20055;-69
2022/07/08 06:00:19;;;;;;;11.50;3.60;;;;;;;16.35;59.22;101049.81;4873131;29;20063;-68
2022/07/08 06:02:46;;;;;;;16.80;3.28;;;;;;;16.55;58.85;101054.06;4887335;29;20063;-68
2022/07/08 06:05:12;;;;;;;12.35;3.95;;;;;;;16.50;58.64;101048.97;4886135;29;20064;-69
2022/07/08 06:07:39;;;;;;;9.07;4.03;;;;;;;16.50;58.95;101051.63;4895102;29;20067;-69
2022/07/08 06:10:07;;;;;;;13.02;3.50;;;;;;;16.54;59.19;101052.34;4880708;29;20052;-69
2022/07/08 06:12:35;;;;;;;11.10;3.75;;;;;;;16.58;58.64;101063.69;4879137;29;20678;-69
2022/07/08 06:15:02;;;;;;;12.98;4.07;;;;;;;16.55;58.20;101075.34;4873863;29;20056;-69
2022/07/08 06:17:28;;;;;;;12.15;3.60;;;;;;;16.52;58.38;101076.38;4874171;29;20081;-69
2022/07/08 06:19:55;;;;;;;7.95;2.63;;;;;;;16.40;58.62;101077.03;4874835;29;20064;-68
2022/07/08 06:22:22;;;;;;;7.15;2.85;;;;;;;16.47;58.45;101082.91;4874295;29;20057;-69
2022/07/08 06:24:49;;;;;;;16.67;3.80;;;;;;;16.52;58.34;101088.84;4873627;29;20049;-70
2022/07/08 06:27:15;;;;;;;12.48;3.70;;;;;;;16.42;58.72;101090.28;4874407;29;20052;-69
2022/07/08 06:29:43;;;;;;;11.23;3.00;;;;;;;16.47;58.80;101090.88;4874384;29;20421;-66
2022/07/08 06:32:10;;;;;;;13.43;4.18;;;;;;;16.56;58.23;101094.84;4874458;29;20144;-68
2022/07/08 06:34:36;;;;;;;12.13;2.88;;;;;;;16.70;57.61;101094.97;4873880;29;20055;-68
2022/07/08 06:37:03;;;;;;;14.80;3.47;;;;;;;16.85;56.55;101104.81;4874237;29;20053;-68
2022/07/08 06:39:30;;;;;;;13.50;4.30;;;;;;;16.89;55.81;101103.72;4873868;29;20053;-69
2022/07/08 06:41:56;;;;;;;8.13;3.38;;;;;;;16.78;56.25;101107.88;4874037;29;20481;-70
2022/07/08 06:44:23;;;;;;;10.45;3.58;;;;;;;16.81;56.36;101108.63;4873262;29;20591;-69
2022/07/08 06:46:51;;;;;;;9.15;3.03;;;;;;;17.06;56.01;101112.59;4873798;29;20140;-69
2022/07/08 06:49:17;;;;;;;16.23;3.33;;;;;;;16.97;56.18;101108.63;4872576;29;20060;-68
2022/07/08 06:51:44;;;;;;;6.65;2.72;;;;;;;17.05;56.18;101109.06;4871920;29;20052;-69
2022/07/08 06:56:55;;;;;;;9.13;2.92;;;;;;;17.28;54.84;101099.81;4871941;29;20072;-69
2022/07/08 06:59:21;;;;;;;10.43;3.03;;;;;;;17.32;55.21;101096.00;4872830;29;20059;-68
2022/07/08 07:01:48;;;;;;;14.02;4.70;;;;;;;17.43;55.15;101094.56;4872823;29;20053;-48
2022/07/08 07:04:16;;;;;;;13.15;3.10;;;;;;;17.70;54.24;101087.63;4872121;29;20064;-50
2022/07/08 07:06:43;;;;;;;6.55;3.40;;;;;;;17.83;53.78;101087.78;4880490;29;20052;-49
2022/07/08 07:09:10;;;;;;;8.05;3.03;;;;;;;17.81;52.90;101079.88;4873093;29;20136;-49
2022/07/08 07:11:38;;;;;;;9.45;3.08;;;;;;;17.64;53.42;101093.31;4872639;29;20812;-53
2022/07/08 07:14:04;;;;;;;7.82;2.83;;;;;;;17.35;53.87;101081.63;4872251;29;20128;-49
2022/07/08 07:16:31;;;;;;;5.35;2.75;;;;;;;17.35;53.72;101082.53;4872091;29;20071;-52
2022/07/08 07:18:57;;;;;;;10.43;3.15;;;;;;;17.34;54.28;101079.94;4872656;29;20041;-49
2022/07/08 07:21:26;;;;;;;10.35;2.65;;;;;;;17.34;53.38;101083.44;4872930;29;20425;-50
2022/07/08 07:23:52;;;;;;;9.88;2.45;;;;;;;17.30;52.84;101086.38;4874095;29;20052;-65
2022/07/08 07:26:19;;;;;;;11.68;2.42;;;;;;;17.36;52.53;101081.56;4880745;29;20063;-65
2022/07/08 07:28:46;;;;;;;12.57;3.10;;;;;;;17.61;51.77;101077.47;4876677;29;20056;-64
2022/07/08 07:31:12;;;;;;;7.90;2.60;;;;;;;17.64;51.18;101087.97;4877494;29;20433;-65
2022/07/08 07:33:40;;;;;;;10.77;3.10;;;;;;;17.87;51.95;101089.34;4881397;29;20056;-66
2022/07/08 07:36:07;;;;;;;9.82;3.00;;;;;;;18.02;50.94;101084.91;4878688;29;20045;-65
2022/07/08 07:38:35;;;;;;;11.98;3.45;;;;;;;18.13;51.19;101090.44;4884498;29;20059;-64
2022/07/08 07:41:02;;;;;;;13.73;2.83;;;;;;;18.42;51.53;101091.34;4873756;29;20057;-65
2022/07/08 07:43:28;;;;;;;8.98;2.75;;;;;;;18.78;49.63;101105.22;4874390;29;20132;-64
2022/07/08 07:45:55;;;;;;;11.50;2.55;;;;;;;18.98;48.97;101095.97;4873428;29;20527;-65
2022/07/08 07:48:22;;;;;;;8.65;2.70;;;;;;;19.04;49.30;101093.75;4873713;29;20053;-64
2022/07/08 07:50:48;;;;;;;9.90;2.55;;;;;;;19.18;49.30;101098.22;4871269;29;20059;-63
2022/07/08 07:53:15;;;;;;;10.20;3.50;;;;;;;19.14;49.14;101099.38;4888740;29;20067;-63
2022/07/08 07:55:43;;;;;;;6.40;2.70;;;;;;;19.35;48.41;101104.31;4892523;29;20140;-63
2022/07/08 07:58:10;;;;;;;4.03;2.30;;;;;;;19.29;48.40;101109.06;4893587;29;20044;-49
2022/07/08 08:00:36;;;;;;;6.85;3.08;;;;;;;19.40;47.76;101111.06;4883308;29;20064;-51
2022/07/08 08:03:04;;;;;;;7.13;3.42;;;;;;;19.49;47.74;101115.81;4880222;29;20121;-51
2022/07/08 08:05:30;;;;;;;8.15;2.72;;;;;;;19.61;47.57;101107.94;4874024;29;20060;-55
2022/07/08 08:07:57;;;;;;;8.82;3.03;;;;;;;19.57;47.76;101109.13;4884970;29;20135;-55
2022/07/08 08:10:24;;;;;;;11.43;2.50;;;;;;;19.51;47.87;101116.56;4876840;29;20061;-52
2022/07/08 08:12:52;;;;;;;8.68;2.95;;;;;;;19.76;47.59;101120.31;4872455;29;20057;-49
2022/07/08 08:15:18;;;;;;;11.85;2.70;;;;;;;19.90;47.56;101124.78;4870880;29;20064;-52
2022/07/08 08:17:45;;;;;;;8.48;3.92;;;;;;;20.10;46.96;101123.41;4872275;29;20569;-51
2022/07/08 08:20:13;;;;;;;8.27;2.80;;;;;;;20.12;46.25;101118.81;4873484;29;20508;-50
2022/07/08 08:22:40;;;;;;;10.23;3.58;;;;;;;20.19;46.06;101114.78;4872391;29;20056;-50
2022/07/08 08:25:08;;;;;;;7.28;3.03;;;;;;;19.95;46.78;101114.59;4871327;29;20041;-51
2022/07/08 08:27:40;;;;;;;7.50;2.78;;;;;;;19.73;47.50;101121.38;4871950;29;20424;-48
2022/07/08 08:30:09;;;;;;;8.65;2.88;;;;;;;19.71;47.15;101119.78;4872042;29;20577;-53
2022/07/08 08:32:36;;;;;;;8.30;3.05;;;;;;;19.18;47.99;101119.63;4872484;29;20565;-54
2022/07/08 08:35:03;;;;;;;8.20;3.08;;;;;;;19.01;49.68;101117.16;4873777;29;20057;-54
2022/07/08 08:37:30;;;;;;;15.32;3.28;;;;;;;19.30;48.89;101115.31;4873166;29;20124;-50
2022/07/08 08:39:56;;;;;;;10.45;2.67;;;;;;;19.47;47.80;101120.41;4873490;29;20059;-51
2022/07/08 08:42:25;;;;;;;10.15;3.08;;;;;;;19.52;47.99;101102.25;4872770;29;20109;-50
2022/07/08 08:44:51;;;;;;;13.32;3.65;;;;;;;19.50;47.88;101111.31;4871847;29;20048;-53
2022/07/08 08:47:25;;;;;;;8.98;2.90;;;;;;;19.42;47.40;101108.28;4871733;29;20631;-54
2022/07/08 08:49:54;;;;;;;12.82;3.65;;;;;;;19.45;47.52;101113.44;4871942;29;20053;-53
2022/07/08 08:52:23;;;;;;;10.65;3.95;;;;;;;19.45;47.83;101106.28;4872875;29;20053;-53
2022/07/08 08:54:52;;;;;;;14.68;3.05;;;;;;;19.78;46.24;101105.03;4871604;29;20052;-53
2022/07/08 08:57:20;;;;;;;6.22;2.40;;;;;;;19.99;45.64;101102.75;4871445;29;20067;-54
2022/07/08 08:59:47;;;;;;;6.22;2.38;;;;;;;20.23;44.62;101088.63;4879066;29;20159;-51
2022/07/08 09:02:14;;;;;;;12.00;3.03;;;;;;;20.44;44.13;101095.19;4870994;29;20148;-54
2022/07/08 09:04:42;;;;;;;15.40;3.30;;;;;;;20.32;44.71;101096.03;4870930;29;20565;-55
2022/07/08 09:07:09;;;;;;;11.40;3.45;;;;;;;20.65;44.03;101098.22;4870864;29;20045;-55
2022/07/08 09:09:35;;;;;;;8.77;2.80;;;;;;;21.27;42.73;101096.50;4870812;29;20049;-52
2022/07/08 09:12:17;;;;;;;12.00;3.15;;;;;;;21.79;42.17;101088.13;4871194;29;20132;-53
2022/07/08 09:14:50;;;;;;;14.07;2.92;;;;;;;22.25;40.17;101091.84;4869547;29;20124;-57
2022/07/08 09:17:17;;;;;;;9.95;3.08;;;;;;;22.26;40.28;101089.03;4883408;29;20140;-54
2022/07/08 09:19:49;;;;;;;8.52;3.05;;;;;;;22.23;40.72;101089.28;4889760;29;20049;-53
2022/07/08 09:22:15;;;;;;;7.07;3.20;;;;;;;22.25;40.86;101095.38;4889567;29;20060;-55
2022/07/08 09:24:42;;;;;;;8.38;3.08;;;;;;;22.30;40.77;101097.72;4888764;29;20055;-55
2022/07/08 09:27:10;;;;;;;7.20;4.22;;;;;;;22.75;39.96;101088.84;4889934;29;20052;-56
2022/07/08 09:29:40;;;;;;;13.50;3.72;;;;;;;23.54;38.72;101082.38;4889235;29;20058;-56
2022/07/08 09:32:12;;;;;;;9.88;3.65;;;;;;;24.23;37.38;101078.41;4870787;29;20055;-53
2022/07/08 09:34:38;;;;;;;7.57;3.35;;;;;;;24.78;36.29;101086.22;4870805;29;20075;-53
2022/07/08 09:37:12;;;;;;;7.80;3.63;;;;;;;25.50;34.76;101071.69;4870695;29;20056;-49
2022/07/08 09:39:39;;;;;;;7.88;3.35;;;;;;;25.89;34.02;101079.78;4871274;29;20049;-54
2022/07/08 09:42:07;;;;;;;14.38;3.97;;;;;;;26.40;32.72;101075.84;4871048;29;20055;-51
2022/07/08 09:44:34;;;;;;;7.55;3.10;;;;;;;26.27;32.46;101072.63;4871025;29;20057;-56
2022/07/08 09:47:01;;;;;;;9.40;3.30;;;;;;;26.14;33.08;101064.84;4870477;29;20056;-53
2022/07/08 09:49:29;;;;;;;8.38;2.95;;;;;;;26.52;32.72;101071.97;4870787;29;20061;-54
2022/07/08 09:51:56;;;;;;;7.03;3.35;;;;;;;26.33;32.84;101066.63;4871510;29;20050;-52
2022/07/08 09:54:30;;;;;;;6.68;3.08;;;;;;;26.97;31.69;101062.25;4870458;29;20060;-50
2022/07/08 09:57:00;;;;;;;9.25;3.47;;;;;;;27.37;30.82;101064.63;4880491;29;20055;-54
2022/07/08 09:59:27;;;;;;;9.43;3.10;;;;;;;27.75;32.17;101069.88;4889111;29;20136;-49
2022/07/08 10:01:54;;;;;;;8.80;4.20;;;;;;;28.04;29.67;101075.06;4888775;29;20064;-54
2022/07/08 10:04:23;;;;;;;8.23;2.85;;;;;;;28.24;29.81;101067.59;4888281;29;20058;-51
2022/07/08 10:06:51;;;;;;;14.50;5.05;;;;;;;28.45;29.56;101064.50;4889231;29;20067;-56
2022/07/08 10:09:18;;;;;;;8.95;2.90;;;;;;;28.69;29.64;101064.63;4888673;29;20067;-52
2022/07/08 10:11:47;;;;;;;12.40;3.55;;;;;;;28.49;30.10;101062.34;4888837;29;20052;-51
2022/07/08 10:14:14;;;;;;;20.95;4.70;;;;;;;28.54;29.71;101060.00;4879742;29;20059;-52
2022/07/08 10:16:42;;;;;;;11.07;4.22;;;;;;;28.20;29.31;101072.47;4870442;29;20053;-53
2022/07/08 10:19:13;;;;;;;42.03;7.60;;;;;;;28.29;29.89;101073.38;4870236;29;20052;-67
2022/07/08 10:21:42;;;;;;;11.63;3.67;;;;;;;28.45;29.44;101056.38;4870416;29;20055;-70
2022/07/08 10:24:17;;;;;;;11.20;3.22;;;;;;;28.64;29.77;101066.97;4869574;29;20112;-70
2022/07/08 10:26:45;;;;;;;7.97;2.83;;;;;;;28.55;29.72;101067.97;4871322;29;20053;-67
2022/07/08 10:29:12;;;;;;;5.53;2.60;;;;;;;28.54;29.44;101065.41;4873384;29;20053;-67
2022/07/08 10:31:43;;;;;;;8.73;3.22;;;;;;;27.77;30.00;101081.41;4873601;29;20072;-60
2022/07/08 10:34:11;;;;;;;9.52;3.35;;;;;;;27.69;30.54;101067.78;4872904;29;20668;-54
2022/07/08 10:36:47;;;;;;;9.98;2.92;;;;;;;28.33;30.42;101079.31;4873441;29;20057;-53
2022/07/08 10:39:14;;;;;;;8.48;2.50;;;;;;;28.32;30.54;101080.34;4872174;29;20061;-58
2022/07/08 10:41:55;;;;;;;8.07;3.25;;;;;;;28.30;29.70;101085.91;4873533;29;20057;-50
2022/07/08 10:44:49;;;;;;;15.05;4.35;;;;;;;28.87;28.93;101070.00;4872344;29;20056;-58
2022/07/08 10:47:17;;;;;;;18.80;4.40;;;;;;;28.79;29.36;101075.38;4872774;29;20725;-62
2022/07/08 10:49:45;;;;;;;13.55;3.80;;;;;;;29.04;28.80;101079.06;4872944;29;20053;-55
2022/07/08 10:52:12;;;;;;;9.40;2.75;;;;;;;29.27;28.87;101076.59;4876703;29;20397;-54
2022/07/08 10:54:39;;;;;;;7.90;2.75;;;;;;;29.09;28.93;101068.56;4872830;29;20051;-67
2022/07/08 10:57:26;;;;;;;11.00;3.00;;;;;;;28.30;29.78;101082.34;4874474;29;20049;-68
2022/07/08 11:00:10;;;;;;;11.07;3.80;;;;;;;27.24;31.46;101076.81;4872749;29;20619;-69
2022/07/08 11:02:42;;;;;;;6.35;3.00;;;;;;;26.93;32.36;101075.25;4873089;29;20532;-70
2022/07/08 11:05:36;;;;;;;11.88;3.65;;;;;;;26.37;33.21;101069.91;4872693;29;20421;-70
2022/07/08 11:08:25;;;;;;;8.85;2.78;;;;;;;26.08;33.57;101065.41;4873075;29;20076;-69
2022/07/08 11:10:53;;;;;;;6.80;3.35;;;;;;;25.60;34.38;101071.69;4872544;29;20045;-70
2022/07/08 11:13:20;;;;;;;9.63;2.67;;;;;;;25.60;34.98;101069.81;4879535;29;20458;-71
2022/07/08 11:15:48;;;;;;;8.13;2.92;;;;;;;25.27;35.41;101071.06;4871776;29;20675;-69
2022/07/08 11:18:22;;;;;;;7.68;3.13;;;;;;;24.98;35.79;101071.84;4872716;29;20053;-70
2022/07/08 11:20:48;;;;;;;7.03;3.42;;;;;;;24.61;36.52;101075.09;4871821;29;20473;-69
2022/07/08 11:23:16;;;;;;;10.73;2.95;;;;;;;24.44;37.69;101075.69;4872627;29;20060;-71
2022/07/08 11:25:43;;;;;;;13.25;3.78;;;;;;;24.25;37.26;101080.97;4871807;29;20056;-71
2022/07/08 11:28:20;;;;;;;15.77;3.75;;;;;;;24.23;37.63;101072.16;4873133;29;20057;-68
2022/07/08 11:30:48;;;;;;;8.27;3.40;;;;;;;24.25;37.99;101070.19;4872413;29;20060;-70
2022/07/08 11:33:14;;;;;;;7.90;3.70;;;;;;;24.10;38.16;101075.06;4872383;29;20068;-68